Gallatin, Texas
Current Conditions -  °F | °C
As of 12:15 PM on Thursday 27 Nov 2014 (Local Time) from KJSO Reporting Station
Clear Clear  
Wind Chill: 57°   Ceiling: Unl
Heat Index: 57°   Visibility: 10mi
Dew Point: 22°   Wind: 6mph
Humidity: 26%   Direction: 50°NE
Pressure: 30.49"   Gusts: NA
Location:  31.89°N, 95.15°W
Report Text: KJSO 271815Z AUTO 05005KT 10SM CLR 13/M05 A3049 RMK AO2 T01411054
Loading
Personal Weather Stations






























Interactive Weather Map New forecast layout! Learn more

10-Day Weather Forecast

Advertisements
Track Severe Weather on mobile